sensor_id;sensor_type;location;lat;lon;timestamp;pressure;altitude;pressure_sealevel;temperature;humidity
64292;BME280;50628;51.008;13.658;2023-02-21T00:05:14;99636.78;;;9.28;100.00
64292;BME280;50628;51.008;13.658;2023-02-21T00:10:34;99621.06;;;9.29;100.00
64292;BME280;50628;51.008;13.658;2023-02-21T00:15:53;99630.63;;;9.29;100.00
64292;BME280;50628;51.008;13.658;2023-02-21T00:21:14;99631.56;;;9.28;100.00
64292;BME280;50628;51.008;13.658;2023-02-21T00:26:34;99643.84;;;9.26;100.00
64292;BME280;50628;51.008;13.658;2023-02-21T00:31:53;99655.16;;;9.14;100.00
64292;BME280;50628;51.008;13.658;2023-02-21T00:37:14;99640.88;;;9.08;100.00
64292;BME280;50628;51.008;13.658;2023-02-21T00:42:33;99632.03;;;9.10;100.00
64292;BME280;50628;51.008;13.658;2023-02-21T00:47:53;99648.06;;;9.04;100.00
64292;BME280;50628;51.008;13.658;2023-02-21T00:53:13;99652.00;;;9.10;100.00
64292;BME280;50628;51.008;13.658;2023-02-21T00:58:32;99638.28;;;9.08;100.00
64292;BME280;50628;51.008;13.658;2023-02-21T01:03:52;99628.50;;;9.12;100.00
64292;BME280;50628;51.008;13.658;2023-02-21T01:09:14;99624.50;;;9.07;100.00
64292;BME280;50628;51.008;13.658;2023-02-21T01:14:33;99608.44;;;9.14;100.00
64292;BME280;50628;51.008;13.658;2023-02-21T01:19:52;99609.84;;;9.18;100.00
64292;BME280;50628;51.008;13.658;2023-02-21T01:25:13;99599.69;;;9.26;100.00
64292;BME280;50628;51.008;13.658;2023-02-21T01:30:33;99586.13;;;9.22;100.00
64292;BME280;50628;51.008;13.658;2023-02-21T01:35:52;99603.94;;;9.27;100.00
64292;BME280;50628;51.008;13.658;2023-02-21T01:41:13;99604.66;;;9.18;100.00
64292;BME280;50628;51.008;13.658;2023-02-21T01:46:32;99589.31;;;9.26;100.00
64292;BME280;50628;51.008;13.658;2023-02-21T01:51:52;99593.34;;;9.30;100.00
64292;BME280;50628;51.008;13.658;2023-02-21T01:57:14;99592.00;;;9.24;100.00
64292;BME280;50628;51.008;13.658;2023-02-21T02:02:37;99579.50;;;9.29;100.00
64292;BME280;50628;51.008;13.658;2023-02-21T02:07:59;99578.31;;;9.34;100.00
64292;BME280;50628;51.008;13.658;2023-02-21T02:13:33;99567.81;;;9.35;100.00
64292;BME280;50628;51.008;13.658;2023-02-21T02:18:49;99573.94;;;9.34;100.00
64292;BME280;50628;51.008;13.658;2023-02-21T02:24:27;99549.03;;;9.31;100.00
64292;BME280;50628;51.008;13.658;2023-02-21T02:29:48;99559.78;;;9.38;100.00
64292;BME280;50628;51.008;13.658;2023-02-21T02:34:59;99547.25;;;9.32;100.00
64292;BME280;50628;51.008;13.658;2023-02-21T02:40:09;99552.91;;;9.37;100.00
64292;BME280;50628;51.008;13.658;2023-02-21T02:45:21;99564.03;;;9.39;100.00
64292;BME280;50628;51.008;13.658;2023-02-21T02:50:30;99547.25;;;9.43;100.00
64292;BME280;50628;51.008;13.658;2023-02-21T02:55:38;99544.78;;;9.42;100.00
64292;BME280;50628;51.008;13.658;2023-02-21T03:00:45;99548.78;;;9.46;100.00
64292;BME280;50628;51.008;13.658;2023-02-21T03:05:59;99533.56;;;9.41;100.00
64292;BME280;50628;51.008;13.658;2023-02-21T03:11:09;99535.94;;;9.33;100.00
64292;BME280;50628;51.008;13.658;2023-02-21T03:16:19;99540.53;;;9.41;100.00
64292;BME280;50628;51.008;13.658;2023-02-21T03:21:27;99531.44;;;9.46;100.00
64292;BME280;50628;51.008;13.658;2023-02-21T03:26:33;99516.44;;;9.50;100.00
64292;BME280;50628;51.008;13.658;2023-02-21T03:31:57;99521.63;;;9.50;100.00
64292;BME280;50628;51.008;13.658;2023-02-21T03:37:02;99521.84;;;9.58;100.00
64292;BME280;50628;51.008;13.658;2023-02-21T03:42:04;99523.94;;;9.64;100.00
64292;BME280;50628;51.008;13.658;2023-02-21T03:47:07;99504.25;;;9.50;100.00
64292;BME280;50628;51.008;13.658;2023-02-21T03:52:11;99500.84;;;9.50;100.00
64292;BME280;50628;51.008;13.658;2023-02-21T03:57:13;99503.31;;;9.51;100.00
64292;BME280;50628;51.008;13.658;2023-02-21T04:02:19;99514.97;;;9.57;100.00
64292;BME280;50628;51.008;13.658;2023-02-21T04:07:22;99501.88;;;9.59;100.00
64292;BME280;50628;51.008;13.658;2023-02-21T04:12:24;99495.84;;;9.58;100.00
64292;BME280;50628;51.008;13.658;2023-02-21T04:17:26;99504.59;;;9.57;100.00
64292;BME280;50628;51.008;13.658;2023-02-21T04:22:31;99503.41;;;9.61;100.00
64292;BME280;50628;51.008;13.658;2023-02-21T04:27:33;99503.50;;;9.60;100.00
64292;BME280;50628;51.008;13.658;2023-02-21T04:32:35;99501.50;;;9.63;100.00
64292;BME280;50628;51.008;13.658;2023-02-21T04:37:44;99510.50;;;9.59;100.00
64292;BME280;50628;51.008;13.658;2023-02-21T04:42:47;99505.75;;;9.64;100.00
64292;BME280;50628;51.008;13.658;2023-02-21T04:47:49;99497.38;;;9.61;100.00
64292;BME280;50628;51.008;13.658;2023-02-21T04:52:52;99508.72;;;9.60;100.00
64292;BME280;50628;51.008;13.658;2023-02-21T04:57:54;99511.00;;;9.53;100.00
64292;BME280;50628;51.008;13.658;2023-02-21T05:02:56;99524.19;;;9.61;100.00
64292;BME280;50628;51.008;13.658;2023-02-21T05:07:59;99523.03;;;9.54;100.00
64292;BME280;50628;51.008;13.658;2023-02-21T05:13:01;99512.72;;;9.64;100.00
64292;BME280;50628;51.008;13.658;2023-02-21T05:18:03;99504.59;;;9.57;100.00
64292;BME280;50628;51.008;13.658;2023-02-21T05:23:06;99507.97;;;9.69;100.00
64292;BME280;50628;51.008;13.658;2023-02-21T05:28:08;99499.03;;;9.62;100.00
64292;BME280;50628;51.008;13.658;2023-02-21T05:33:10;99505.88;;;9.63;100.00
64292;BME280;50628;51.008;13.658;2023-02-21T05:38:13;99521.22;;;9.66;100.00
64292;BME280;50628;51.008;13.658;2023-02-21T05:43:15;99519.44;;;9.66;100.00
64292;BME280;50628;51.008;13.658;2023-02-21T05:48:17;99524.19;;;9.61;100.00
64292;BME280;50628;51.008;13.658;2023-02-21T05:53:20;99536.84;;;9.54;100.00
64292;BME280;50628;51.008;13.658;2023-02-21T05:58:22;99536.09;;;9.64;100.00
64292;BME280;50628;51.008;13.658;2023-02-21T06:03:24;99537.63;;;9.66;100.00
64292;BME280;50628;51.008;13.658;2023-02-21T06:08:27;99541.06;;;9.67;100.00
64292;BME280;50628;51.008;13.658;2023-02-21T06:13:29;99552.56;;;9.53;100.00
64292;BME280;50628;51.008;13.658;2023-02-21T06:18:31;99548.44;;;9.50;100.00
64292;BME280;50628;51.008;13.658;2023-02-21T06:23:34;99568.97;;;9.53;100.00
64292;BME280;50628;51.008;13.658;2023-02-21T06:28:36;99567.41;;;9.62;100.00
64292;BME280;50628;51.008;13.658;2023-02-21T06:33:38;99558.53;;;9.65;100.00
64292;BME280;50628;51.008;13.658;2023-02-21T06:38:44;99577.34;;;9.57;100.00
64292;BME280;50628;51.008;13.658;2023-02-21T06:43:46;99586.56;;;9.61;100.00
64292;BME280;50628;51.008;13.658;2023-02-21T06:48:54;99575.09;;;9.64;100.00
64292;BME280;50628;51.008;13.658;2023-02-21T06:53:58;99596.38;;;9.58;100.00
64292;BME280;50628;51.008;13.658;2023-02-21T06:59:00;99595.63;;;9.67;100.00
64292;BME280;50628;51.008;13.658;2023-02-21T07:04:02;99592.81;;;9.59;100.00
64292;BME280;50628;51.008;13.658;2023-02-21T07:09:05;99602.03;;;9.63;100.00
64292;BME280;50628;51.008;13.658;2023-02-21T07:14:15;99609.91;;;9.72;100.00
64292;BME280;50628;51.008;13.658;2023-02-21T07:19:17;99630.13;;;9.69;100.00
64292;BME280;50628;51.008;13.658;2023-02-21T07:24:20;99633.06;;;9.75;100.00
64292;BME280;50628;51.008;13.658;2023-02-21T07:29:22;99638.94;;;9.78;100.00
64292;BME280;50628;51.008;13.658;2023-02-21T07:34:25;99633.19;;;9.74;100.00
64292;BME280;50628;51.008;13.658;2023-02-21T07:39:28;99651.84;;;9.79;100.00
64292;BME280;50628;51.008;13.658;2023-02-21T07:44:30;99648.28;;;9.80;100.00
64292;BME280;50628;51.008;13.658;2023-02-21T07:49:36;99646.03;;;9.87;100.00
64292;BME280;50628;51.008;13.658;2023-02-21T07:54:39;99654.44;;;9.90;100.00
64292;BME280;50628;51.008;13.658;2023-02-21T07:59:41;99653.72;;;9.88;100.00
64292;BME280;50628;51.008;13.658;2023-02-21T08:04:43;99652.19;;;9.86;100.00
64292;BME280;50628;51.008;13.658;2023-02-21T08:09:46;99656.69;;;9.84;100.00
64292;BME280;50628;51.008;13.658;2023-02-21T08:14:48;99664.47;;;9.84;100.00
64292;BME280;50628;51.008;13.658;2023-02-21T08:19:50;99661.28;;;9.91;100.00
64292;BME280;50628;51.008;13.658;2023-02-21T08:24:53;99664.13;;;9.88;100.00
64292;BME280;50628;51.008;13.658;2023-02-21T08:29:55;99660.59;;;9.78;100.00
64292;BME280;50628;51.008;13.658;2023-02-21T08:34:57;99663.66;;;9.83;100.00
64292;BME280;50628;51.008;13.658;2023-02-21T08:40:01;99661.78;;;9.85;100.00
64292;BME280;50628;51.008;13.658;2023-02-21T08:45:04;99668.59;;;9.86;100.00
64292;BME280;50628;51.008;13.658;2023-02-21T08:50:06;99668.03;;;9.83;100.00
64292;BME280;50628;51.008;13.658;2023-02-21T08:55:09;99672.81;;;10.10;100.00
64292;BME280;50628;51.008;13.658;2023-02-21T09:00:13;99675.88;;;10.15;100.00
64292;BME280;50628;51.008;13.658;2023-02-21T09:05:17;99669.13;;;10.24;100.00
64292;BME280;50628;51.008;13.658;2023-02-21T09:10:21;99675.75;;;10.28;100.00
64292;BME280;50628;51.008;13.658;2023-02-21T09:15:24;99667.47;;;10.34;100.00
64292;BME280;50628;51.008;13.658;2023-02-21T09:20:26;99667.56;;;10.32;100.00
64292;BME280;50628;51.008;13.658;2023-02-21T09:25:29;99676.44;;;10.30;100.00
64292;BME280;50628;51.008;13.658;2023-02-21T09:30:31;99667.81;;;10.29;100.00
64292;BME280;50628;51.008;13.658;2023-02-21T09:35:33;99684.44;;;10.38;100.00
64292;BME280;50628;51.008;13.658;2023-02-21T09:40:40;99674.75;;;10.40;100.00
64292;BME280;50628;51.008;13.658;2023-02-21T09:45:44;99671.50;;;10.59;100.00
64292;BME280;50628;51.008;13.658;2023-02-21T09:50:49;99671.13;;;10.64;100.00
64292;BME280;50628;51.008;13.658;2023-02-21T09:55:56;99671.88;;;10.75;100.00
64292;BME280;50628;51.008;13.658;2023-02-21T10:01:03;99681.78;;;10.81;100.00
64292;BME280;50628;51.008;13.658;2023-02-21T10:06:14;99677.16;;;10.64;100.00
64292;BME280;50628;51.008;13.658;2023-02-21T10:11:32;99679.03;;;10.62;100.00
64292;BME280;50628;51.008;13.658;2023-02-21T10:16:40;99690.09;;;10.75;100.00
64292;BME280;50628;51.008;13.658;2023-02-21T10:21:45;99692.50;;;10.67;100.00
64292;BME280;50628;51.008;13.658;2023-02-21T10:26:53;99697.16;;;10.85;100.00
64292;BME280;50628;51.008;13.658;2023-02-21T10:32:00;99689.72;;;11.01;100.00
64292;BME280;50628;51.008;13.658;2023-02-21T10:37:17;99696.59;;;11.02;100.00
64292;BME280;50628;51.008;13.658;2023-02-21T10:42:29;99697.47;;;11.12;100.00
64292;BME280;50628;51.008;13.658;2023-02-21T10:47:47;99691.31;;;11.13;100.00
64292;BME280;50628;51.008;13.658;2023-02-21T10:52:51;99698.41;;;11.11;100.00
64292;BME280;50628;51.008;13.658;2023-02-21T10:57:56;99687.22;;;11.20;100.00
64292;BME280;50628;51.008;13.658;2023-02-21T11:03:02;99699.19;;;11.02;100.00
64292;BME280;50628;51.008;13.658;2023-02-21T11:08:07;99703.94;;;11.18;100.00
64292;BME280;50628;51.008;13.658;2023-02-21T11:13:16;99703.88;;;11.29;100.00
64292;BME280;50628;51.008;13.658;2023-02-21T11:18:22;99707.31;;;11.09;100.00
64292;BME280;50628;51.008;13.658;2023-02-21T11:23:26;99695.94;;;11.10;100.00
64292;BME280;50628;51.008;13.658;2023-02-21T11:28:30;99689.16;;;10.97;100.00
64292;BME280;50628;51.008;13.658;2023-02-21T11:33:35;99681.41;;;11.07;100.00
64292;BME280;50628;51.008;13.658;2023-02-21T11:38:39;99702.81;;;11.11;100.00
64292;BME280;50628;51.008;13.658;2023-02-21T11:43:48;99704.97;;;11.05;100.00
64292;BME280;50628;51.008;13.658;2023-02-21T11:48:57;99686.56;;;10.97;100.00
64292;BME280;50628;51.008;13.658;2023-02-21T11:54:02;99694.00;;;11.02;100.00
64292;BME280;50628;51.008;13.658;2023-02-21T11:59:15;99701.72;;;11.13;100.00
64292;BME280;50628;51.008;13.658;2023-02-21T12:04:40;99691.69;;;11.09;100.00
64292;BME280;50628;51.008;13.658;2023-02-21T12:09:48;99686.78;;;11.15;100.00
64292;BME280;50628;51.008;13.658;2023-02-21T12:15:05;99677.44;;;11.13;100.00
64292;BME280;50628;51.008;13.658;2023-02-21T12:20:25;99678.97;;;11.15;100.00
64292;BME280;50628;51.008;13.658;2023-02-21T12:25:32;99668.81;;;11.12;100.00
64292;BME280;50628;51.008;13.658;2023-02-21T12:30:50;99666.59;;;11.08;100.00
64292;BME280;50628;51.008;13.658;2023-02-21T12:36:05;99651.94;;;11.07;100.00
64292;BME280;50628;51.008;13.658;2023-02-21T12:41:26;99649.38;;;10.95;100.00
64292;BME280;50628;51.008;13.658;2023-02-21T12:46:38;99667.69;;;10.84;100.00
64292;BME280;50628;51.008;13.658;2023-02-21T12:51:45;99657.91;;;10.76;100.00
64292;BME280;50628;51.008;13.658;2023-02-21T12:56:52;99655.06;;;10.79;100.00
64292;BME280;50628;51.008;13.658;2023-02-21T13:02:02;99646.28;;;11.01;100.00
64292;BME280;50628;51.008;13.658;2023-02-21T13:07:09;99647.41;;;11.09;100.00
64292;BME280;50628;51.008;13.658;2023-02-21T13:12:29;99640.91;;;11.24;100.00
64292;BME280;50628;51.008;13.658;2023-02-21T13:17:35;99628.44;;;11.27;100.00
64292;BME280;50628;51.008;13.658;2023-02-21T13:28:40;99628.88;;;11.33;100.00
64292;BME280;50628;51.008;13.658;2023-02-21T13:33:48;99640.81;;;11.35;100.00
64292;BME280;50628;51.008;13.658;2023-02-21T13:38:57;99627.78;;;11.35;100.00
64292;BME280;50628;51.008;13.658;2023-02-21T13:44:05;99621.97;;;11.22;100.00
64292;BME280;50628;51.008;13.658;2023-02-21T13:55:22;99618.78;;;11.18;100.00
64292;BME280;50628;51.008;13.658;2023-02-21T14:00:50;99624.41;;;11.14;100.00
64292;BME280;50628;51.008;13.658;2023-02-21T14:11:43;99614.63;;;11.06;100.00
64292;BME280;50628;51.008;13.658;2023-02-21T14:16:49;99626.00;;;11.05;100.00
64292;BME280;50628;51.008;13.658;2023-02-21T14:21:58;99633.22;;;10.92;100.00
64292;BME280;50628;51.008;13.658;2023-02-21T14:27:31;99625.84;;;10.97;100.00
64292;BME280;50628;51.008;13.658;2023-02-21T14:32:34;99626.13;;;11.03;100.00
64292;BME280;50628;51.008;13.658;2023-02-21T14:37:40;99614.44;;;10.98;100.00
64292;BME280;50628;51.008;13.658;2023-02-21T14:42:53;99618.91;;;11.07;100.00
64292;BME280;50628;51.008;13.658;2023-02-21T14:54:05;99616.78;;;11.01;100.00
64292;BME280;50628;51.008;13.658;2023-02-21T15:05:15;99627.63;;;10.96;100.00
64292;BME280;50628;51.008;13.658;2023-02-21T15:10:22;99626.34;;;10.91;100.00
64292;BME280;50628;51.008;13.658;2023-02-21T15:15:26;99617.88;;;10.98;100.00
64292;BME280;50628;51.008;13.658;2023-02-21T15:20:31;99621.34;;;10.99;100.00
64292;BME280;50628;51.008;13.658;2023-02-21T15:25:34;99619.97;;;11.04;100.00
64292;BME280;50628;51.008;13.658;2023-02-21T15:30:38;99630.72;;;10.90;100.00
64292;BME280;50628;51.008;13.658;2023-02-21T15:35:45;99638.25;;;10.83;100.00
64292;BME280;50628;51.008;13.658;2023-02-21T15:40:53;99637.84;;;10.88;100.00
64292;BME280;50628;51.008;13.658;2023-02-21T15:45:57;99643.56;;;10.82;100.00
64292;BME280;50628;51.008;13.658;2023-02-21T15:51:05;99643.44;;;10.83;100.00
64292;BME280;50628;51.008;13.658;2023-02-21T15:56:18;99642.84;;;10.80;100.00
64292;BME280;50628;51.008;13.658;2023-02-21T16:01:20;99639.56;;;10.78;100.00
64292;BME280;50628;51.008;13.658;2023-02-21T16:06:43;99645.09;;;10.85;100.00
64292;BME280;50628;51.008;13.658;2023-02-21T16:11:48;99645.09;;;10.85;100.00
64292;BME280;50628;51.008;13.658;2023-02-21T16:16:57;99651.88;;;10.76;100.00
64292;BME280;50628;51.008;13.658;2023-02-21T16:22:20;99650.66;;;10.80;100.00
64292;BME280;50628;51.008;13.658;2023-02-21T16:27:23;99659.81;;;10.74;100.00
64292;BME280;50628;51.008;13.658;2023-02-21T16:32:25;99649.91;;;10.68;100.00
64292;BME280;50628;51.008;13.658;2023-02-21T16:37:29;99659.69;;;10.76;100.00
64292;BME280;50628;51.008;13.658;2023-02-21T16:42:31;99665.97;;;10.73;100.00
64292;BME280;50628;51.008;13.658;2023-02-21T16:47:33;99666.66;;;10.75;100.00
64292;BME280;50628;51.008;13.658;2023-02-21T16:52:36;99676.16;;;10.76;100.00
64292;BME280;50628;51.008;13.658;2023-02-21T16:57:38;99684.19;;;10.73;100.00
64292;BME280;50628;51.008;13.658;2023-02-21T17:02:40;99678.31;;;10.71;100.00
64292;BME280;50628;51.008;13.658;2023-02-21T17:07:43;99681.13;;;10.68;100.00
64292;BME280;50628;51.008;13.658;2023-02-21T17:12:45;99682.47;;;10.63;100.00
64292;BME280;50628;51.008;13.658;2023-02-21T17:17:47;99686.59;;;10.65;100.00
64292;BME280;50628;51.008;13.658;2023-02-21T17:22:51;99697.34;;;10.72;100.00
64292;BME280;50628;51.008;13.658;2023-02-21T17:27:53;99697.16;;;10.64;100.00
64292;BME280;50628;51.008;13.658;2023-02-21T17:32:56;99694.22;;;10.57;100.00
64292;BME280;50628;51.008;13.658;2023-02-21T17:37:59;99694.41;;;10.65;100.00
64292;BME280;50628;51.008;13.658;2023-02-21T17:43:01;99709.25;;;10.53;100.00
64292;BME280;50628;51.008;13.658;2023-02-21T17:48:07;99708.41;;;10.53;100.00
64292;BME280;50628;51.008;13.658;2023-02-21T17:53:10;99702.38;;;10.52;100.00
64292;BME280;50628;51.008;13.658;2023-02-21T17:58:12;99709.84;;;10.46;100.00
64292;BME280;50628;51.008;13.658;2023-02-21T18:03:14;99716.84;;;10.45;100.00
64292;BME280;50628;51.008;13.658;2023-02-21T18:08:18;99719.59;;;10.44;100.00
64292;BME280;50628;51.008;13.658;2023-02-21T18:13:21;99711.88;;;10.42;100.00
64292;BME280;50628;51.008;13.658;2023-02-21T18:18:23;99721.22;;;10.45;100.00
64292;BME280;50628;51.008;13.658;2023-02-21T18:23:26;99723.72;;;10.46;100.00
64292;BME280;50628;51.008;13.658;2023-02-21T18:28:28;99726.94;;;10.38;100.00
64292;BME280;50628;51.008;13.658;2023-02-21T18:33:30;99731.78;;;10.32;100.00
64292;BME280;50628;51.008;13.658;2023-02-21T18:38:33;99735.22;;;10.32;100.00
64292;BME280;50628;51.008;13.658;2023-02-21T18:43:35;99737.31;;;10.27;100.00
64292;BME280;50628;51.008;13.658;2023-02-21T18:48:40;99733.06;;;10.26;100.00
64292;BME280;50628;51.008;13.658;2023-02-21T18:53:44;99729.88;;;10.23;100.00
64292;BME280;50628;51.008;13.658;2023-02-21T18:58:47;99734.63;;;10.29;100.00
64292;BME280;50628;51.008;13.658;2023-02-21T19:03:50;99732.72;;;10.19;100.00
64292;BME280;50628;51.008;13.658;2023-02-21T19:08:53;99734.84;;;10.14;100.00
64292;BME280;50628;51.008;13.658;2023-02-21T19:13:55;99737.00;;;10.21;100.00
64292;BME280;50628;51.008;13.658;2023-02-21T19:18:58;99743.16;;;10.08;100.00
64292;BME280;50628;51.008;13.658;2023-02-21T19:24:04;99746.09;;;10.15;100.00
64292;BME280;50628;51.008;13.658;2023-02-21T19:29:06;99755.44;;;10.06;100.00
64292;BME280;50628;51.008;13.658;2023-02-21T19:34:08;99750.97;;;10.08;100.00
64292;BME280;50628;51.008;13.658;2023-02-21T19:39:11;99755.56;;;10.05;100.00
64292;BME280;50628;51.008;13.658;2023-02-21T19:44:13;99760.75;;;10.05;100.00
64292;BME280;50628;51.008;13.658;2023-02-21T19:49:15;99765.84;;;9.95;100.00
64292;BME280;50628;51.008;13.658;2023-02-21T19:54:21;99768.09;;;10.00;100.00
64292;BME280;50628;51.008;13.658;2023-02-21T19:59:24;99776.34;;;10.05;100.00
64292;BME280;50628;51.008;13.658;2023-02-21T20:04:29;99772.00;;;9.94;100.00
64292;BME280;50628;51.008;13.658;2023-02-21T20:09:32;99783.81;;;9.87;100.00
64292;BME280;50628;51.008;13.658;2023-02-21T20:14:35;99785.09;;;9.92;100.00
64292;BME280;50628;51.008;13.658;2023-02-21T20:19:37;99789.38;;;9.93;100.00
64292;BME280;50628;51.008;13.658;2023-02-21T20:24:41;99788.41;;;9.94;100.00
64292;BME280;50628;51.008;13.658;2023-02-21T20:29:45;99776.16;;;9.85;100.00
64292;BME280;50628;51.008;13.658;2023-02-21T20:34:47;99788.28;;;9.85;100.00
64292;BME280;50628;51.008;13.658;2023-02-21T20:39:51;99783.22;;;9.83;100.00
64292;BME280;50628;51.008;13.658;2023-02-21T20:44:53;99778.97;;;9.82;100.00
64292;BME280;50628;51.008;13.658;2023-02-21T20:49:56;99774.97;;;9.78;100.00
64292;BME280;50628;51.008;13.658;2023-02-21T20:54:59;99782.88;;;9.77;100.00
64292;BME280;50628;51.008;13.658;2023-02-21T21:00:01;99784.06;;;9.84;100.00
64292;BME280;50628;51.008;13.658;2023-02-21T21:05:08;99781.81;;;9.79;100.00
64292;BME280;50628;51.008;13.658;2023-02-21T21:10:15;99783.94;;;9.74;100.00
64292;BME280;50628;51.008;13.658;2023-02-21T21:15:19;99790.56;;;9.78;100.00
64292;BME280;50628;51.008;13.658;2023-02-21T21:20:22;99791.16;;;9.70;100.00
64292;BME280;50628;51.008;13.658;2023-02-21T21:25:27;99794.06;;;9.54;100.00
64292;BME280;50628;51.008;13.658;2023-02-21T21:30:34;99790.06;;;9.50;100.00
64292;BME280;50628;51.008;13.658;2023-02-21T21:35:36;99785.44;;;9.43;100.00
64292;BME280;50628;51.008;13.658;2023-02-21T21:40:39;99779.19;;;9.45;100.00
64292;BME280;50628;51.008;13.658;2023-02-21T21:45:47;99785.91;;;9.48;100.00
64292;BME280;50628;51.008;13.658;2023-02-21T21:50:49;99784.63;;;9.53;100.00
64292;BME280;50628;51.008;13.658;2023-02-21T21:55:52;99781.06;;;9.54;100.00
64292;BME280;50628;51.008;13.658;2023-02-21T22:00:56;99780.72;;;9.59;100.00
64292;BME280;50628;51.008;13.658;2023-02-21T22:06:01;99784.72;;;9.52;100.00
64292;BME280;50628;51.008;13.658;2023-02-21T22:11:04;99793.25;;;9.54;100.00
64292;BME280;50628;51.008;13.658;2023-02-21T22:16:09;99789.59;;;9.57;100.00
64292;BME280;50628;51.008;13.658;2023-02-21T22:21:11;99784.03;;;9.61;100.00
64292;BME280;50628;51.008;13.658;2023-02-21T22:26:19;99793.63;;;9.61;100.00
64292;BME280;50628;51.008;13.658;2023-02-21T22:31:21;99784.38;;;9.57;100.00
64292;BME280;50628;51.008;13.658;2023-02-21T22:36:24;99789.22;;;9.50;100.00
64292;BME280;50628;51.008;13.658;2023-02-21T22:41:28;99788.72;;;9.45;100.00
64292;BME280;50628;51.008;13.658;2023-02-21T22:46:37;99788.84;;;9.43;100.00
64292;BME280;50628;51.008;13.658;2023-02-21T22:51:40;99796.13;;;9.27;100.00
64292;BME280;50628;51.008;13.658;2023-02-21T22:56:43;99787.28;;;9.29;100.00
64292;BME280;50628;51.008;13.658;2023-02-21T23:01:51;99777.50;;;9.33;100.00
64292;BME280;50628;51.008;13.658;2023-02-21T23:06:53;99768.78;;;9.45;100.00
64292;BME280;50628;51.008;13.658;2023-02-21T23:11:58;99776.81;;;9.53;100.00
64292;BME280;50628;51.008;13.658;2023-02-21T23:17:01;99782.59;;;9.46;100.00
64292;BME280;50628;51.008;13.658;2023-02-21T23:22:03;99784.34;;;9.34;100.00
64292;BME280;50628;51.008;13.658;2023-02-21T23:27:07;99789.53;;;9.34;100.00
64292;BME280;50628;51.008;13.658;2023-02-21T23:32:09;99785.88;;;9.37;100.00
64292;BME280;50628;51.008;13.658;2023-02-21T23:37:12;99789.19;;;9.39;100.00
64292;BME280;50628;51.008;13.658;2023-02-21T23:42:16;99792.13;;;9.34;100.00
64292;BME280;50628;51.008;13.658;2023-02-21T23:47:17;99786.13;;;9.34;100.00
64292;BME280;50628;51.008;13.658;2023-02-21T23:52:20;99783.38;;;9.24;100.00
64292;BME280;50628;51.008;13.658;2023-02-21T23:57:23;99785.25;;;9.22;100.00
